sensor_id;sensor_type;location;lat;lon;timestamp;P1;durP1;ratioP1;P2;durP2;ratioP2
75516;SDS011;64097;52.548;13.406;2023-02-23T06:01:42;24.75;;;15.20;;
75516;SDS011;64097;52.548;13.406;2023-02-23T06:04:07;29.50;;;15.88;;
75516;SDS011;64097;52.548;13.406;2023-02-23T06:06:34;28.27;;;15.48;;
75516;SDS011;64097;52.548;13.406;2023-02-23T06:09:00;25.00;;;15.65;;
75516;SDS011;64097;52.548;13.406;2023-02-23T06:11:27;22.98;;;14.27;;
75516;SDS011;64097;52.548;13.406;2023-02-23T06:13:53;27.45;;;15.65;;
75516;SDS011;64097;52.548;13.406;2023-02-23T06:16:19;27.30;;;14.23;;
75516;SDS011;64097;52.548;13.406;2023-02-23T06:18:45;21.48;;;13.73;;
75516;SDS011;64097;52.548;13.406;2023-02-23T06:21:10;24.85;;;14.90;;
75516;SDS011;64097;52.548;13.406;2023-02-23T06:23:36;25.08;;;15.80;;
75516;SDS011;64097;52.548;13.406;2023-02-23T06:26:02;22.02;;;14.00;;
75516;SDS011;64097;52.548;13.406;2023-02-23T06:28:28;22.63;;;13.77;;
75516;SDS011;64097;52.548;13.406;2023-02-23T06:30:55;25.15;;;14.63;;
75516;SDS011;64097;52.548;13.406;2023-02-23T06:33:21;20.15;;;13.20;;
75516;SDS011;64097;52.548;13.406;2023-02-23T06:35:47;23.33;;;14.30;;
75516;SDS011;64097;52.548;13.406;2023-02-23T06:38:13;25.98;;;14.70;;
75516;SDS011;64097;52.548;13.406;2023-02-23T06:40:39;20.77;;;13.60;;
75516;SDS011;64097;52.548;13.406;2023-02-23T06:43:05;27.42;;;14.82;;
75516;SDS011;64097;52.548;13.406;2023-02-23T06:45:31;25.40;;;15.43;;
75516;SDS011;64097;52.548;13.406;2023-02-23T06:47:57;26.05;;;15.63;;
75516;SDS011;64097;52.548;13.406;2023-02-23T06:50:23;25.33;;;14.38;;
75516;SDS011;64097;52.548;13.406;2023-02-23T06:52:49;26.23;;;15.57;;
75516;SDS011;64097;52.548;13.406;2023-02-23T06:55:15;23.25;;;13.65;;
75516;SDS011;64097;52.548;13.406;2023-02-23T06:57:41;24.38;;;14.52;;
75516;SDS011;64097;52.548;13.406;2023-02-23T07:00:08;26.25;;;15.18;;
75516;SDS011;64097;52.548;13.406;2023-02-23T07:02:38;21.52;;;14.40;;
75516;SDS011;64097;52.548;13.406;2023-02-23T07:05:05;24.02;;;14.70;;
75516;SDS011;64097;52.548;13.406;2023-02-23T07:07:31;24.13;;;14.35;;
75516;SDS011;64097;52.548;13.406;2023-02-23T07:09:57;23.67;;;14.88;;
75516;SDS011;64097;52.548;13.406;2023-02-23T07:12:22;24.38;;;15.30;;
75516;SDS011;64097;52.548;13.406;2023-02-23T07:14:48;25.17;;;15.35;;
75516;SDS011;64097;52.548;13.406;2023-02-23T07:17:14;22.67;;;14.73;;
75516;SDS011;64097;52.548;13.406;2023-02-23T07:19:39;20.98;;;14.05;;
75516;SDS011;64097;52.548;13.406;2023-02-23T07:22:05;20.63;;;13.60;;
75516;SDS011;64097;52.548;13.406;2023-02-23T07:24:31;23.00;;;14.20;;
75516;SDS011;64097;52.548;13.406;2023-02-23T07:26:56;22.02;;;14.20;;
75516;SDS011;64097;52.548;13.406;2023-02-23T07:29:22;23.85;;;14.40;;
75516;SDS011;64097;52.548;13.406;2023-02-23T07:31:48;27.25;;;15.60;;
75516;SDS011;64097;52.548;13.406;2023-02-23T07:34:14;23.33;;;16.20;;
75516;SDS011;64097;52.548;13.406;2023-02-23T07:36:40;24.65;;;15.02;;
75516;SDS011;64097;52.548;13.406;2023-02-23T07:39:06;22.45;;;14.23;;
75516;SDS011;64097;52.548;13.406;2023-02-23T07:41:32;25.77;;;15.18;;
75516;SDS011;64097;52.548;13.406;2023-02-23T07:43:58;24.27;;;15.27;;
75516;SDS011;64097;52.548;13.406;2023-02-23T07:46:24;24.45;;;14.23;;
75516;SDS011;64097;52.548;13.406;2023-02-23T07:48:50;21.23;;;13.93;;
75516;SDS011;64097;52.548;13.406;2023-02-23T07:51:16;26.10;;;15.93;;
75516;SDS011;64097;52.548;13.406;2023-02-23T07:53:42;25.02;;;15.63;;
75516;SDS011;64097;52.548;13.406;2023-02-23T07:56:09;23.70;;;15.48;;
75516;SDS011;64097;52.548;13.406;2023-02-23T07:58:36;24.60;;;15.80;;
75516;SDS011;64097;52.548;13.406;2023-02-23T08:01:03;25.15;;;15.20;;
75516;SDS011;64097;52.548;13.406;2023-02-23T08:03:29;24.30;;;15.95;;
75516;SDS011;64097;52.548;13.406;2023-02-23T08:05:55;24.13;;;13.80;;
75516;SDS011;64097;52.548;13.406;2023-02-23T08:08:21;25.70;;;15.50;;
75516;SDS011;64097;52.548;13.406;2023-02-23T08:10:47;23.23;;;14.80;;
75516;SDS011;64097;52.548;13.406;2023-02-23T08:13:14;22.45;;;14.18;;
75516;SDS011;64097;52.548;13.406;2023-02-23T08:15:40;25.67;;;15.85;;
75516;SDS011;64097;52.548;13.406;2023-02-23T08:18:07;22.50;;;13.95;;
75516;SDS011;64097;52.548;13.406;2023-02-23T08:20:33;26.67;;;16.80;;
75516;SDS011;64097;52.548;13.406;2023-02-23T08:22:59;25.27;;;15.70;;
75516;SDS011;64097;52.548;13.406;2023-02-23T08:25:25;21.17;;;13.77;;
75516;SDS011;64097;52.548;13.406;2023-02-23T08:27:54;25.25;;;14.93;;
75516;SDS011;64097;52.548;13.406;2023-02-23T08:30:21;27.35;;;16.13;;
75516;SDS011;64097;52.548;13.406;2023-02-23T08:32:47;25.23;;;15.02;;
75516;SDS011;64097;52.548;13.406;2023-02-23T08:35:14;23.30;;;14.55;;
75516;SDS011;64097;52.548;13.406;2023-02-23T08:37:42;23.83;;;16.15;;
75516;SDS011;64097;52.548;13.406;2023-02-23T08:40:09;23.85;;;14.85;;
75516;SDS011;64097;52.548;13.406;2023-02-23T08:42:39;21.92;;;14.30;;
75516;SDS011;64097;52.548;13.406;2023-02-23T08:45:05;23.02;;;15.18;;
75516;SDS011;64097;52.548;13.406;2023-02-23T08:47:32;25.02;;;15.55;;
75516;SDS011;64097;52.548;13.406;2023-02-23T08:49:58;25.15;;;15.20;;
75516;SDS011;64097;52.548;13.406;2023-02-23T08:52:24;25.50;;;15.13;;
75516;SDS011;64097;52.548;13.406;2023-02-23T08:54:50;25.67;;;14.82;;
75516;SDS011;64097;52.548;13.406;2023-02-23T08:57:15;29.40;;;18.05;;
75516;SDS011;64097;52.548;13.406;2023-02-23T08:59:42;24.83;;;16.17;;
75516;SDS011;64097;52.548;13.406;2023-02-23T09:02:11;25.63;;;16.00;;
75516;SDS011;64097;52.548;13.406;2023-02-23T09:04:37;26.23;;;15.98;;
75516;SDS011;64097;52.548;13.406;2023-02-23T09:07:06;22.85;;;15.18;;
75516;SDS011;64097;52.548;13.406;2023-02-23T09:09:33;22.38;;;14.43;;
75516;SDS011;64097;52.548;13.406;2023-02-23T09:11:59;24.42;;;15.23;;
75516;SDS011;64097;52.548;13.406;2023-02-23T09:14:25;22.42;;;15.77;;
75516;SDS011;64097;52.548;13.406;2023-02-23T09:16:52;27.80;;;16.75;;
75516;SDS011;64097;52.548;13.406;2023-02-23T09:19:17;27.80;;;15.32;;
75516;SDS011;64097;52.548;13.406;2023-02-23T09:21:44;21.48;;;14.75;;
75516;SDS011;64097;52.548;13.406;2023-02-23T09:24:09;22.65;;;14.38;;
75516;SDS011;64097;52.548;13.406;2023-02-23T09:26:35;23.02;;;14.10;;
75516;SDS011;64097;52.548;13.406;2023-02-23T09:29:04;26.63;;;17.08;;
75516;SDS011;64097;52.548;13.406;2023-02-23T09:31:31;22.65;;;15.15;;
75516;SDS011;64097;52.548;13.406;2023-02-23T09:33:58;24.20;;;15.43;;
75516;SDS011;64097;52.548;13.406;2023-02-23T09:36:27;24.42;;;15.70;;
75516;SDS011;64097;52.548;13.406;2023-02-23T09:38:54;23.92;;;14.95;;
75516;SDS011;64097;52.548;13.406;2023-02-23T09:43:49;24.35;;;16.42;;
75516;SDS011;64097;52.548;13.406;2023-02-23T09:49:30;21.90;;;14.30;;
75516;SDS011;64097;52.548;13.406;2023-02-23T09:51:58;22.60;;;14.70;;
75516;SDS011;64097;52.548;13.406;2023-02-23T09:54:27;21.40;;;15.18;;
75516;SDS011;64097;52.548;13.406;2023-02-23T09:56:56;22.48;;;15.23;;
75516;SDS011;64097;52.548;13.406;2023-02-23T09:59:24;23.48;;;16.52;;
75516;SDS011;64097;52.548;13.406;2023-02-23T10:02:12;23.05;;;15.48;;
75516;SDS011;64097;52.548;13.406;2023-02-23T10:04:48;21.23;;;15.38;;
75516;SDS011;64097;52.548;13.406;2023-02-23T10:10:02;23.55;;;15.00;;
75516;SDS011;64097;52.548;13.406;2023-02-23T10:18:23;23.38;;;15.25;;
75516;SDS011;64097;52.548;13.406;2023-02-23T10:24:19;22.45;;;15.82;;
75516;SDS011;64097;52.548;13.406;2023-02-23T10:26:52;20.48;;;14.45;;
75516;SDS011;64097;52.548;13.406;2023-02-23T10:29:44;26.70;;;17.05;;
75516;SDS011;64097;52.548;13.406;2023-02-23T10:32:23;21.27;;;15.13;;
75516;SDS011;64097;52.548;13.406;2023-02-23T10:35:16;21.90;;;15.40;;
75516;SDS011;64097;52.548;13.406;2023-02-23T10:37:44;25.02;;;16.27;;
75516;SDS011;64097;52.548;13.406;2023-02-23T10:40:30;21.83;;;16.52;;
75516;SDS011;64097;52.548;13.406;2023-02-23T10:42:59;26.75;;;18.38;;
75516;SDS011;64097;52.548;13.406;2023-02-23T10:45:27;26.38;;;16.90;;
75516;SDS011;64097;52.548;13.406;2023-02-23T10:48:06;23.48;;;16.60;;
75516;SDS011;64097;52.548;13.406;2023-02-23T10:50:32;24.50;;;16.52;;
75516;SDS011;64097;52.548;13.406;2023-02-23T10:56:21;28.45;;;18.92;;
75516;SDS011;64097;52.548;13.406;2023-02-23T10:58:47;24.98;;;18.75;;
75516;SDS011;64097;52.548;13.406;2023-02-23T11:04:17;24.48;;;16.05;;
75516;SDS011;64097;52.548;13.406;2023-02-23T11:06:51;21.98;;;16.00;;
75516;SDS011;64097;52.548;13.406;2023-02-23T11:09:38;24.52;;;16.65;;
75516;SDS011;64097;52.548;13.406;2023-02-23T11:14:45;29.27;;;20.40;;
75516;SDS011;64097;52.548;13.406;2023-02-23T11:17:28;26.83;;;18.95;;
75516;SDS011;64097;52.548;13.406;2023-02-23T11:20:39;25.23;;;18.85;;
75516;SDS011;64097;52.548;13.406;2023-02-23T11:22:50;27.58;;;20.90;;
75516;SDS011;64097;52.548;13.406;2023-02-23T11:25:20;29.63;;;19.98;;
75516;SDS011;64097;52.548;13.406;2023-02-23T11:27:51;28.20;;;21.42;;
75516;SDS011;64097;52.548;13.406;2023-02-23T11:30:21;34.38;;;22.50;;
75516;SDS011;64097;52.548;13.406;2023-02-23T11:32:52;27.33;;;20.10;;
75516;SDS011;64097;52.548;13.406;2023-02-23T11:37:51;22.25;;;16.65;;
75516;SDS011;64097;52.548;13.406;2023-02-23T11:40:25;21.50;;;17.25;;
75516;SDS011;64097;52.548;13.406;2023-02-23T11:45:43;27.10;;;19.65;;
75516;SDS011;64097;52.548;13.406;2023-02-23T11:48:17;26.52;;;18.27;;
75516;SDS011;64097;52.548;13.406;2023-02-23T11:51:07;27.40;;;19.13;;
75516;SDS011;64097;52.548;13.406;2023-02-23T11:53:43;31.38;;;22.60;;
75516;SDS011;64097;52.548;13.406;2023-02-23T11:56:10;31.80;;;22.23;;
75516;SDS011;64097;52.548;13.406;2023-02-23T11:58:43;27.17;;;19.27;;
75516;SDS011;64097;52.548;13.406;2023-02-23T12:01:12;22.85;;;17.45;;
75516;SDS011;64097;52.548;13.406;2023-02-23T12:03:54;25.75;;;19.02;;
75516;SDS011;64097;52.548;13.406;2023-02-23T12:06:31;21.35;;;16.17;;
75516;SDS011;64097;52.548;13.406;2023-02-23T12:11:43;23.35;;;17.40;;
75516;SDS011;64097;52.548;13.406;2023-02-23T12:17:03;22.60;;;16.13;;
75516;SDS011;64097;52.548;13.406;2023-02-23T12:19:39;27.60;;;18.98;;
75516;SDS011;64097;52.548;13.406;2023-02-23T12:24:42;18.70;;;14.85;;
75516;SDS011;64097;52.548;13.406;2023-02-23T12:27:39;18.55;;;14.65;;
75516;SDS011;64097;52.548;13.406;2023-02-23T12:30:25;17.83;;;14.10;;
75516;SDS011;64097;52.548;13.406;2023-02-23T12:32:57;22.25;;;15.65;;
75516;SDS011;64097;52.548;13.406;2023-02-23T12:38:23;20.80;;;14.90;;
75516;SDS011;64097;52.548;13.406;2023-02-23T12:40:58;20.98;;;16.13;;
75516;SDS011;64097;52.548;13.406;2023-02-23T12:43:36;23.52;;;15.50;;
75516;SDS011;64097;52.548;13.406;2023-02-23T12:46:36;22.38;;;16.73;;
75516;SDS011;64097;52.548;13.406;2023-02-23T12:54:40;22.77;;;16.95;;
75516;SDS011;64097;52.548;13.406;2023-02-23T12:57:16;22.73;;;16.50;;
75516;SDS011;64097;52.548;13.406;2023-02-23T13:03:13;23.08;;;15.90;;
75516;SDS011;64097;52.548;13.406;2023-02-23T13:19:57;26.48;;;19.38;;
75516;SDS011;64097;52.548;13.406;2023-02-23T13:22:39;24.75;;;18.33;;
75516;SDS011;64097;52.548;13.406;2023-02-23T13:25:24;29.15;;;18.63;;
75516;SDS011;64097;52.548;13.406;2023-02-23T13:31:26;21.30;;;17.02;;
75516;SDS011;64097;52.548;13.406;2023-02-23T13:33:57;22.15;;;17.65;;
75516;SDS011;64097;52.548;13.406;2023-02-23T13:36:26;20.42;;;15.98;;
75516;SDS011;64097;52.548;13.406;2023-02-23T13:41:54;28.05;;;18.70;;
75516;SDS011;64097;52.548;13.406;2023-02-23T13:44:39;27.45;;;19.95;;
75516;SDS011;64097;52.548;13.406;2023-02-23T13:49:56;22.23;;;16.58;;
75516;SDS011;64097;52.548;13.406;2023-02-23T13:52:38;27.65;;;19.30;;
